Kayenta, Utah
Current Conditions -  °F | °C
As of 8:55 PM on Saturday 25 Oct 2014 (Local Time) from KSGU Reporting Station
Clear Clear  
Wind Chill: 73°   Ceiling: Unl
Heat Index: 73°   Visibility: 10mi
Dew Point: 39°   Wind: 9mph
Humidity: 29%   Direction: 170°S
Pressure: 29.99"   Gusts: NA
Location:  37.1829°N, 113.647°W
Report Text: KSGU 260255Z AUTO 17008KT 10SM CLR 23/04 A2999 RMK AO1 54000
Loading
Personal Weather Stations






























Interactive Weather Map
Tropical Storm Tracking
New forecast layout! Learn more

10-Day Weather Forecast

Advertisements
Track Severe Weather on mobile